createdAt,value
2023-04-17T00:02:03.913Z,10.60
2023-04-17T00:04:32.012Z,10.50
2023-04-17T00:07:03.265Z,10.50
2023-04-17T00:09:31.276Z,10.50
2023-04-17T00:11:58.561Z,10.50
2023-04-17T00:14:25.862Z,10.40
2023-04-17T00:16:53.350Z,10.40
2023-04-17T00:19:20.826Z,10.40
2023-04-17T00:21:48.267Z,10.40
2023-04-17T00:24:15.669Z,10.40
2023-04-17T00:26:43.107Z,10.30
2023-04-17T00:29:10.793Z,10.40
2023-04-17T00:31:38.501Z,10.30
2023-04-17T00:34:05.979Z,10.40
2023-04-17T00:36:33.435Z,10.40
2023-04-17T00:39:01.227Z,10.30
2023-04-17T00:41:28.893Z,10.30
2023-04-17T00:43:56.341Z,10.30
2023-04-17T00:46:24.388Z,10.30
2023-04-17T00:48:52.074Z,10.30
2023-04-17T00:51:20.774Z,10.30
2023-04-17T00:53:48.457Z,10.30
2023-04-17T00:56:15.817Z,10.30
2023-04-17T00:58:44.062Z,10.30
2023-04-17T01:01:11.832Z,10.30
2023-04-17T01:03:39.426Z,10.30
2023-04-17T01:06:07.052Z,10.30
2023-04-17T01:08:41.851Z,10.30
2023-04-17T01:11:12.545Z,10.30
2023-04-17T01:13:50.545Z,10.30
2023-04-17T01:16:19.307Z,10.30
2023-04-17T01:18:48.514Z,10.30
2023-04-17T01:21:16.675Z,10.30
2023-04-17T01:23:52.118Z,10.20
2023-04-17T01:26:24.982Z,10.30
2023-04-17T01:28:57.832Z,10.30
2023-04-17T01:31:27.839Z,10.30
2023-04-17T01:33:55.789Z,10.30
2023-04-17T01:36:23.221Z,10.30
2023-04-17T01:38:50.645Z,10.30
2023-04-17T01:41:19.238Z,10.30
2023-04-17T01:43:47.625Z,10.30
2023-04-17T01:46:15.044Z,10.30
2023-04-17T01:48:42.380Z,10.30
2023-04-17T01:51:09.756Z,10.30
2023-04-17T01:53:39.170Z,10.30
2023-04-17T01:56:07.017Z,10.30
2023-04-17T01:58:35.569Z,10.30
2023-04-17T02:01:02.910Z,10.30
2023-04-17T02:03:31.458Z,10.30
2023-04-17T02:05:59.229Z,10.30
2023-04-17T02:08:27.250Z,10.30
2023-04-17T02:10:54.536Z,10.30
2023-04-17T02:13:22.037Z,10.30
2023-04-17T02:15:49.505Z,10.20
2023-04-17T02:18:17.055Z,10.20
2023-04-17T02:20:45.473Z,10.20
2023-04-17T02:23:12.845Z,10.20
2023-04-17T02:25:40.352Z,10.20
2023-04-17T02:28:07.698Z,10.20
2023-04-17T02:30:35.234Z,10.20
2023-04-17T02:33:02.705Z,10.20
2023-04-17T02:35:32.056Z,10.20
2023-04-17T02:37:59.753Z,10.20
2023-04-17T02:40:27.996Z,10.20
2023-04-17T02:43:01.495Z,10.10
2023-04-17T02:45:30.753Z,10.20
2023-04-17T02:47:58.329Z,10.10
2023-04-17T02:50:25.885Z,10.20
2023-04-17T02:53:06.104Z,10.20
2023-04-17T02:55:33.491Z,10.20
2023-04-17T02:58:00.869Z,10.20
2023-04-17T03:00:29.287Z,10.20
2023-04-17T03:02:56.951Z,10.30
2023-04-17T03:05:24.626Z,10.30
2023-04-17T03:07:54.025Z,10.30
2023-04-17T03:10:21.435Z,10.30
2023-04-17T03:12:49.669Z,10.40
2023-04-17T03:15:17.323Z,10.40
2023-04-17T03:17:44.885Z,10.40
2023-04-17T03:20:12.462Z,10.40
2023-04-17T03:22:39.720Z,10.40
2023-04-17T03:25:08.648Z,10.40
2023-04-17T03:27:44.788Z,10.40
2023-04-17T03:30:13.883Z,10.40
2023-04-17T03:32:45.736Z,10.40
2023-04-17T03:35:13.037Z,10.40
2023-04-17T03:37:41.658Z,10.40
2023-04-17T03:40:09.321Z,10.40
2023-04-17T03:42:36.647Z,10.30
2023-04-17T03:45:04.830Z,10.40
2023-04-17T03:47:34.249Z,10.30
2023-04-17T03:50:02.021Z,10.40
2023-04-17T03:52:35.225Z,10.40
2023-04-17T03:55:04.039Z,10.30
2023-04-17T03:57:31.712Z,10.30
2023-04-17T03:59:59.509Z,10.30
2023-04-17T04:02:30.777Z,10.30
2023-04-17T04:04:58.466Z,10.30
2023-04-17T04:07:25.944Z,10.30
2023-04-17T04:09:54.131Z,10.30
2023-04-17T04:12:23.215Z,10.20
2023-04-17T04:14:50.693Z,10.20
2023-04-17T04:17:18.880Z,10.20
2023-04-17T04:19:47.927Z,10.20
2023-04-17T04:22:15.711Z,10.30
2023-04-17T04:24:49.506Z,10.30
2023-04-17T04:27:22.740Z,10.40
2023-04-17T04:29:51.299Z,10.40
2023-04-17T04:32:20.937Z,10.50
2023-04-17T04:34:49.833Z,10.50
2023-04-17T04:37:22.046Z,10.60
2023-04-17T04:39:54.063Z,10.60
2023-04-17T04:42:23.382Z,10.70
2023-04-17T04:45:13.595Z,10.70
2023-04-17T04:47:43.221Z,10.80
2023-04-17T04:50:10.898Z,10.90
2023-04-17T04:52:38.360Z,10.90
2023-04-17T04:55:26.845Z,11.00
2023-04-17T04:57:57.646Z,11.00
2023-04-17T05:00:26.354Z,11.10
2023-04-17T05:02:56.918Z,11.20
2023-04-17T05:05:26.009Z,11.30
2023-04-17T05:07:55.085Z,11.40
2023-04-17T05:10:25.649Z,11.40
2023-04-17T05:12:58.715Z,11.40
2023-04-17T05:15:27.198Z,11.40
2023-04-17T05:17:54.877Z,11.50
2023-04-17T05:20:23.310Z,11.50
2023-04-17T05:22:55.167Z,11.60
2023-04-17T05:25:23.374Z,11.70
2023-04-17T05:27:51.762Z,11.70
2023-04-17T05:30:19.576Z,11.80
2023-04-17T05:32:54.723Z,11.90
2023-04-17T05:35:51.962Z,12.00
2023-04-17T05:38:21.113Z,12.00
2023-04-17T05:40:48.476Z,12.10
2023-04-17T05:43:17.107Z,12.00
2023-04-17T05:45:45.365Z,12.10
2023-04-17T05:48:12.760Z,12.10
2023-04-17T05:50:40.147Z,12.10
2023-04-17T05:53:08.538Z,12.10
2023-04-17T05:55:40.613Z,12.20
2023-04-17T05:58:22.981Z,12.20
2023-04-17T06:00:53.121Z,12.40
2023-04-17T06:03:21.434Z,12.60
2023-04-17T06:05:54.613Z,12.70
2023-04-17T06:08:22.719Z,12.60
2023-04-17T06:10:52.127Z,12.60
2023-04-17T06:13:19.585Z,12.70
2023-04-17T06:15:51.498Z,12.70
2023-04-17T06:18:19.621Z,12.70
2023-04-17T06:20:47.047Z,12.60
2023-04-17T06:23:14.369Z,12.60
2023-04-17T06:25:43.018Z,12.70
2023-04-17T06:28:10.426Z,12.70
2023-04-17T06:30:38.368Z,12.70
2023-04-17T06:33:08.937Z,12.70
2023-04-17T06:35:37.749Z,12.80
2023-04-17T06:38:31.281Z,12.90
2023-04-17T06:40:58.718Z,13.00
2023-04-17T06:43:26.203Z,12.90
2023-04-17T06:45:54.204Z,13.00
2023-04-17T06:48:21.584Z,13.10
2023-04-17T06:50:49.444Z,13.10
2023-04-17T06:53:16.835Z,13.30
2023-04-17T06:55:45.097Z,13.30
2023-04-17T06:58:13.287Z,13.30
2023-04-17T07:00:41.249Z,13.40
2023-04-17T07:03:08.627Z,13.40
2023-04-17T07:05:36.077Z,13.50
2023-04-17T07:08:03.431Z,13.50
2023-04-17T07:10:31.015Z,13.50
2023-04-17T07:12:58.252Z,13.60
2023-04-17T07:15:28.593Z,13.70
2023-04-17T07:17:56.127Z,13.70
2023-04-17T07:20:23.523Z,13.90
2023-04-17T07:22:51.375Z,14.00
2023-04-17T07:25:19.816Z,14.00
2023-04-17T07:27:47.159Z,14.10
2023-04-17T07:30:14.936Z,14.10
2023-04-17T07:32:42.663Z,14.20
2023-04-17T07:35:10.261Z,14.40
2023-04-17T07:37:37.874Z,14.50
2023-04-17T07:40:10.556Z,14.60
2023-04-17T07:42:38.618Z,14.70
2023-04-17T07:45:06.742Z,14.90
2023-04-17T07:47:34.074Z,14.90
2023-04-17T07:50:01.512Z,15.00
2023-04-17T07:52:29.962Z,15.10
2023-04-17T07:54:57.734Z,15.20
2023-04-17T07:57:27.843Z,15.40
2023-04-17T07:59:55.687Z,15.40
2023-04-17T08:02:23.383Z,15.40
2023-04-17T08:04:52.518Z,15.50
2023-04-17T08:07:20.321Z,15.40
2023-04-17T08:09:47.734Z,15.60
2023-04-17T08:12:14.978Z,15.70
2023-04-17T08:14:44.033Z,15.80
2023-04-17T08:17:11.496Z,15.90
2023-04-17T08:19:38.937Z,15.90
2023-04-17T08:22:07.238Z,15.90
2023-04-17T08:24:34.567Z,16.00
2023-04-17T08:27:02.078Z,16.30
2023-04-17T08:29:29.357Z,16.40
2023-04-17T08:32:10.902Z,16.50
2023-04-17T08:34:41.590Z,16.60
2023-04-17T08:37:08.863Z,16.70
2023-04-17T08:39:36.148Z,16.80
2023-04-17T08:42:08.262Z,16.90
2023-04-17T08:44:36.040Z,17.00
2023-04-17T08:47:04.602Z,17.00
2023-04-17T08:49:35.474Z,17.20
2023-04-17T08:52:08.222Z,17.20
2023-04-17T08:54:36.599Z,17.20
2023-04-17T08:57:04.869Z,17.20
2023-04-17T08:59:32.753Z,17.20
2023-04-17T09:02:07.929Z,17.20
2023-04-17T09:04:42.679Z,17.30
2023-04-17T09:07:11.959Z,17.30
2023-04-17T09:09:55.116Z,17.40
2023-04-17T09:12:25.606Z,17.40
2023-04-17T09:14:53.346Z,17.40
2023-04-17T09:17:21.119Z,17.60
2023-04-17T09:20:08.009Z,17.60
2023-04-17T09:22:37.448Z,17.50
2023-04-17T09:25:05.326Z,17.50
2023-04-17T09:27:32.843Z,17.40
2023-04-17T09:30:06.304Z,17.40
2023-04-17T09:32:34.382Z,17.40
2023-04-17T09:35:03.866Z,17.50
2023-04-17T09:37:51.779Z,17.60
2023-04-17T09:40:20.991Z,17.50
2023-04-17T09:43:02.393Z,17.60
2023-04-17T09:45:36.945Z,17.60
2023-04-17T09:48:23.078Z,17.70
2023-04-17T09:50:50.781Z,17.70
2023-04-17T09:53:19.375Z,17.70
2023-04-17T09:55:48.359Z,17.90
2023-04-17T09:58:16.559Z,18.10
2023-04-17T10:00:44.043Z,18.20
2023-04-17T10:03:15.381Z,18.30
2023-04-17T10:05:43.205Z,18.40
2023-04-17T10:08:10.647Z,18.40
2023-04-17T10:10:37.952Z,18.50
2023-04-17T10:13:09.654Z,18.40
2023-04-17T10:15:39.458Z,18.50
2023-04-17T10:18:21.266Z,18.70
2023-04-17T10:20:49.989Z,18.60
2023-04-17T10:23:34.501Z,18.40
2023-04-17T10:26:26.515Z,18.30
2023-04-17T10:28:55.984Z,18.40
2023-04-17T10:31:43.551Z,18.40
2023-04-17T10:34:34.654Z,18.50
2023-04-17T10:37:03.356Z,18.80
2023-04-17T10:39:51.412Z,18.80
2023-04-17T10:42:21.066Z,18.90
2023-04-17T10:44:50.081Z,18.80
2023-04-17T10:47:21.731Z,18.80
2023-04-17T10:49:54.330Z,18.90
2023-04-17T10:52:48.310Z,19.00
2023-04-17T10:55:20.730Z,19.10
2023-04-17T10:57:55.330Z,19.10
2023-04-17T11:00:37.162Z,19.30
2023-04-17T11:03:06.662Z,19.40
2023-04-17T11:05:35.761Z,19.50
2023-04-17T11:08:03.263Z,19.30
2023-04-17T11:10:35.212Z,19.10
2023-04-17T11:13:02.510Z,19.30
2023-04-17T11:15:31.360Z,19.50
2023-04-17T11:17:59.623Z,19.40
2023-04-17T11:20:30.146Z,19.30
2023-04-17T11:23:02.374Z,19.40
2023-04-17T11:25:31.708Z,19.40
2023-04-17T11:28:02.104Z,19.40
2023-04-17T11:30:31.882Z,19.10
2023-04-17T11:33:01.410Z,18.80
2023-04-17T11:35:31.099Z,18.90
2023-04-17T11:38:14.493Z,19.20
2023-04-17T11:40:47.568Z,19.20
2023-04-17T11:43:15.140Z,19.30
2023-04-17T11:45:44.629Z,19.30
2023-04-17T11:48:13.797Z,19.40
2023-04-17T11:50:43.363Z,19.60
2023-04-17T11:53:15.279Z,19.70
2023-04-17T11:55:44.324Z,19.90
2023-04-17T11:58:13.160Z,19.90
2023-04-17T12:00:41.227Z,19.60
2023-04-17T12:03:32.497Z,19.50
2023-04-17T12:06:05.235Z,19.40
2023-04-17T12:08:47.088Z,19.60
2023-04-17T12:11:26.052Z,19.90
2023-04-17T12:13:54.627Z,20.00
2023-04-17T12:16:24.955Z,20.30
2023-04-17T12:18:53.062Z,20.60
2023-04-17T12:21:21.028Z,20.50
2023-04-17T12:23:48.638Z,20.20
2023-04-17T12:26:16.153Z,20.20
2023-04-17T12:28:43.407Z,20.10
2023-04-17T12:31:11.020Z,20.00
2023-04-17T12:33:38.653Z,20.10
2023-04-17T12:36:07.249Z,20.20
2023-04-17T12:38:35.080Z,20.10
2023-04-17T12:41:02.399Z,20.10
2023-04-17T12:43:31.390Z,20.30
2023-04-17T12:45:58.780Z,20.40
2023-04-17T12:48:26.231Z,20.40
2023-04-17T12:50:54.445Z,20.20
2023-04-17T12:53:21.961Z,20.20
2023-04-17T12:55:49.289Z,20.20
2023-04-17T12:58:16.831Z,20.20
2023-04-17T13:00:44.816Z,20.10
2023-04-17T13:03:12.431Z,20.10
2023-04-17T13:05:40.233Z,20.00
2023-04-17T13:08:12.423Z,19.90
2023-04-17T13:10:39.774Z,20.00
2023-04-17T13:13:07.211Z,20.20
2023-04-17T13:15:35.450Z,20.20
2023-04-17T13:18:03.724Z,20.30
2023-04-17T13:20:31.131Z,20.20
2023-04-17T13:22:59.131Z,20.00
2023-04-17T13:25:26.750Z,19.80
2023-04-17T13:27:55.534Z,19.60
2023-04-17T13:30:22.973Z,19.70
2023-04-17T13:32:50.470Z,19.80
2023-04-17T13:35:18.114Z,19.90
2023-04-17T13:37:45.603Z,20.00
2023-04-17T13:40:13.423Z,19.80
2023-04-17T13:42:41.702Z,19.60
2023-04-17T13:45:09.277Z,19.50
2023-04-17T13:47:36.731Z,19.50
2023-04-17T13:50:04.635Z,19.30
2023-04-17T13:52:31.905Z,19.30
2023-04-17T13:55:00.141Z,19.40
2023-04-17T13:57:27.463Z,19.50
2023-04-17T13:59:54.716Z,19.60
2023-04-17T14:02:22.190Z,19.50
2023-04-17T14:04:49.669Z,19.50
2023-04-17T14:07:17.089Z,19.50
2023-04-17T14:09:44.362Z,19.60
2023-04-17T14:12:11.718Z,19.70
2023-04-17T14:14:38.957Z,19.80
2023-04-17T14:17:06.400Z,19.80
2023-04-17T14:19:33.801Z,19.80
2023-04-17T14:22:01.451Z,19.70
2023-04-17T14:24:28.940Z,19.50
2023-04-17T14:26:57.760Z,19.50
2023-04-17T14:29:25.170Z,19.40
2023-04-17T14:31:53.004Z,19.40
2023-04-17T14:34:20.311Z,19.30
2023-04-17T14:36:47.782Z,19.10
2023-04-17T14:39:15.315Z,19.00
2023-04-17T14:41:42.798Z,19.00
2023-04-17T14:44:10.624Z,19.20
2023-04-17T14:46:38.083Z,19.30
2023-04-17T14:49:05.498Z,19.30
2023-04-17T14:51:32.863Z,19.10
2023-04-17T14:54:00.425Z,19.10
2023-04-17T14:56:27.786Z,18.90
2023-04-17T14:58:55.035Z,18.90
2023-04-17T15:01:22.374Z,18.90
2023-04-17T15:03:49.919Z,18.90
2023-04-17T15:06:18.849Z,18.80
2023-04-17T15:08:46.498Z,18.50
2023-04-17T15:11:13.866Z,18.40
2023-04-17T15:13:41.521Z,18.20
2023-04-17T15:16:10.903Z,18.20
2023-04-17T15:18:39.473Z,18.20
2023-04-17T15:21:07.161Z,18.10
2023-04-17T15:23:35.460Z,18.00
2023-04-17T15:26:02.806Z,18.10
2023-04-17T15:28:30.195Z,18.20
2023-04-17T15:30:57.528Z,18.30
2023-04-17T15:33:24.840Z,18.40
2023-04-17T15:35:56.192Z,18.50
2023-04-17T15:38:23.943Z,18.60
2023-04-17T15:40:51.443Z,18.90
2023-04-17T15:43:19.331Z,19.00
2023-04-17T15:45:48.970Z,19.00
2023-04-17T15:48:16.337Z,19.00
2023-04-17T15:50:44.387Z,18.80
2023-04-17T15:53:13.209Z,18.60
2023-04-17T15:55:41.334Z,18.50
2023-04-17T15:58:08.773Z,18.30
2023-04-17T16:00:36.129Z,18.20
2023-04-17T16:03:03.716Z,18.20
2023-04-17T16:05:31.190Z,18.20
2023-04-17T16:07:58.626Z,18.10
2023-04-17T16:10:26.004Z,18.00
2023-04-17T16:12:53.274Z,17.90
2023-04-17T16:15:20.598Z,17.90
2023-04-17T16:17:48.952Z,17.90
2023-04-17T16:20:16.607Z,17.80
2023-04-17T16:22:44.110Z,17.80
2023-04-17T16:25:14.094Z,17.70
2023-04-17T16:27:41.481Z,17.70
2023-04-17T16:30:09.851Z,17.60
2023-04-17T16:32:37.177Z,17.60
2023-04-17T16:35:05.025Z,17.60
2023-04-17T16:37:32.330Z,17.50
2023-04-17T16:40:04.560Z,17.50
2023-04-17T16:42:32.624Z,17.50
2023-04-17T16:45:00.284Z,17.40
2023-04-17T16:47:30.949Z,17.20
2023-04-17T16:49:58.657Z,17.00
2023-04-17T16:52:25.931Z,16.80
2023-04-17T16:54:53.353Z,16.60
2023-04-17T16:57:20.973Z,16.50
2023-04-17T16:59:48.234Z,16.40
2023-04-17T17:02:15.703Z,16.30
2023-04-17T17:04:44.844Z,16.20
2023-04-17T17:07:12.363Z,16.10
2023-04-17T17:09:39.737Z,16.00
2023-04-17T17:12:07.236Z,16.00
2023-04-17T17:14:36.322Z,15.90
2023-04-17T17:17:03.734Z,15.90
2023-04-17T17:19:31.232Z,15.90
2023-04-17T17:21:58.608Z,16.00
2023-04-17T17:24:26.102Z,16.00
2023-04-17T17:26:53.702Z,16.00
2023-04-17T17:29:20.999Z,16.10
2023-04-17T17:31:49.328Z,16.10
2023-04-17T17:34:26.169Z,16.20
2023-04-17T17:36:54.738Z,16.20
2023-04-17T17:39:22.437Z,16.20
2023-04-17T17:41:50.594Z,16.10
2023-04-17T17:44:19.103Z,16.00
2023-04-17T17:46:46.531Z,15.90
2023-04-17T17:49:13.885Z,15.80
2023-04-17T17:51:41.970Z,15.70
2023-04-17T17:54:09.472Z,15.70
2023-04-17T17:56:36.877Z,15.60
2023-04-17T17:59:04.318Z,15.60
2023-04-17T18:01:31.625Z,15.60
2023-04-17T18:03:59.054Z,15.50
2023-04-17T18:06:26.719Z,15.50
2023-04-17T18:08:54.469Z,15.50
2023-04-17T18:11:22.904Z,15.40
2023-04-17T18:13:50.931Z,15.40
2023-04-17T18:16:18.325Z,15.30
2023-04-17T18:18:45.941Z,15.20
2023-04-17T18:21:13.216Z,15.10
2023-04-17T18:23:40.746Z,15.00
2023-04-17T18:26:08.039Z,15.00
2023-04-17T18:28:35.654Z,14.90
2023-04-17T18:31:02.927Z,14.90
2023-04-17T18:33:30.353Z,14.90
2023-04-17T18:35:57.792Z,14.80
2023-04-17T18:38:25.151Z,14.80
2023-04-17T18:40:57.313Z,14.80
2023-04-17T18:43:25.900Z,14.80
2023-04-17T18:45:53.321Z,14.70
2023-04-17T18:48:21.017Z,14.70
2023-04-17T18:50:48.382Z,14.70
2023-04-17T18:53:16.510Z,14.70
2023-04-17T18:55:43.755Z,14.70
2023-04-17T18:58:11.237Z,14.70
2023-04-17T19:00:38.673Z,14.70
2023-04-17T19:03:06.387Z,14.60
2023-04-17T19:05:33.934Z,14.60
2023-04-17T19:08:01.294Z,14.50
2023-04-17T19:10:29.893Z,14.50
2023-04-17T19:12:57.161Z,14.40
2023-04-17T19:15:24.620Z,14.40
2023-04-17T19:17:52.834Z,14.30
2023-04-17T19:20:20.363Z,14.30
2023-04-17T19:22:47.742Z,14.20
2023-04-17T19:25:15.016Z,14.10
2023-04-17T19:27:42.318Z,14.10
2023-04-17T19:30:10.459Z,14.00
2023-04-17T19:32:37.856Z,14.00
2023-04-17T19:35:05.703Z,13.90
2023-04-17T19:37:33.443Z,13.90
2023-04-17T19:42:28.611Z,13.70
2023-04-17T19:44:55.978Z,13.70
2023-04-17T19:47:26.318Z,13.70
2023-04-17T19:49:53.732Z,13.70
2023-04-17T19:52:21.086Z,13.60
2023-04-17T19:54:48.462Z,13.60
2023-04-17T19:57:16.002Z,13.60
2023-04-17T19:59:43.387Z,13.70
2023-04-17T20:02:11.715Z,13.70
2023-04-17T20:04:39.129Z,13.70
2023-04-17T20:07:06.379Z,13.60
2023-04-17T20:09:33.686Z,13.60
2023-04-17T20:12:01.154Z,13.60
2023-04-17T20:14:28.741Z,13.60
2023-04-17T20:16:56.652Z,13.60
2023-04-17T20:19:24.544Z,13.60
2023-04-17T20:21:52.123Z,13.50
2023-04-17T20:24:19.730Z,13.50
2023-04-17T20:26:47.256Z,13.50
2023-04-17T20:29:14.877Z,13.50
2023-04-17T20:31:42.560Z,13.50
2023-04-17T20:34:09.968Z,13.50
2023-04-17T20:36:37.215Z,13.50
2023-04-17T20:39:05.399Z,13.50
2023-04-17T20:41:33.175Z,13.50
2023-04-17T20:44:01.698Z,13.50
2023-04-17T20:46:29.572Z,13.50
2023-04-17T20:48:56.979Z,13.50
2023-04-17T20:51:26.274Z,13.50
2023-04-17T20:53:54.514Z,13.50
2023-04-17T20:56:22.073Z,13.50
2023-04-17T20:58:49.439Z,13.40
2023-04-17T21:01:16.978Z,13.40
2023-04-17T21:03:44.470Z,13.40
2023-04-17T21:06:11.834Z,13.40
2023-04-17T21:08:39.269Z,13.30
2023-04-17T21:11:06.994Z,13.20
2023-04-17T21:13:34.985Z,13.20
2023-04-17T21:16:03.889Z,13.20
2023-04-17T21:18:31.410Z,13.20
2023-04-17T21:20:58.907Z,13.10
2023-04-17T21:23:26.203Z,13.10
2023-04-17T21:25:54.804Z,13.10
2023-04-17T21:28:22.356Z,13.10
2023-04-17T21:30:49.696Z,13.00
2023-04-17T21:33:17.183Z,13.00
2023-04-17T21:35:44.506Z,13.00
2023-04-17T21:38:12.578Z,13.00
2023-04-17T21:40:50.643Z,13.00
2023-04-17T21:43:19.148Z,13.00
2023-04-17T21:45:46.931Z,13.00
2023-04-17T21:48:14.983Z,13.00
2023-04-17T21:50:43.600Z,13.00
2023-04-17T21:53:11.084Z,13.00
2023-04-17T21:55:38.929Z,13.00
2023-04-17T21:58:07.033Z,13.10
2023-04-17T22:00:34.402Z,13.10
2023-04-17T22:03:01.703Z,13.10
2023-04-17T22:05:29.081Z,13.10
2023-04-17T22:07:56.320Z,13.10
2023-04-17T22:10:24.345Z,13.20
2023-04-17T22:12:51.622Z,13.20
2023-04-17T22:15:19.504Z,13.20
2023-04-17T22:17:47.283Z,13.20
2023-04-17T22:20:14.835Z,13.20
2023-04-17T22:22:42.363Z,13.20
2023-04-17T22:25:09.883Z,13.30
2023-04-17T22:27:37.166Z,13.30
2023-04-17T22:30:06.269Z,13.40
2023-04-17T22:32:34.605Z,13.40
2023-04-17T22:35:03.754Z,13.40
2023-04-17T22:37:31.311Z,13.40
2023-04-17T22:39:58.853Z,13.50
2023-04-17T22:42:26.373Z,13.50
2023-04-17T22:44:53.687Z,13.50
2023-04-17T22:47:21.792Z,13.60
2023-04-17T22:49:49.274Z,13.60
2023-04-17T22:52:16.962Z,13.60
2023-04-17T22:54:44.388Z,13.70
2023-04-17T22:57:11.764Z,13.60
2023-04-17T22:59:41.423Z,13.60
2023-04-17T23:02:08.829Z,13.60
2023-04-17T23:04:36.505Z,13.70
2023-04-17T23:07:03.898Z,13.70
2023-04-17T23:09:31.326Z,13.70
2023-04-17T23:11:58.726Z,13.70
2023-04-17T23:14:28.371Z,13.70
2023-04-17T23:16:55.736Z,13.70
2023-04-17T23:19:23.409Z,13.70
2023-04-17T23:21:50.880Z,13.70
2023-04-17T23:24:18.229Z,13.70
2023-04-17T23:26:47.012Z,13.70
2023-04-17T23:29:14.511Z,13.70
2023-04-17T23:31:42.827Z,13.70
2023-04-17T23:34:10.717Z,13.80
2023-04-17T23:36:38.510Z,13.70
2023-04-17T23:39:05.781Z,13.70
2023-04-17T23:41:34.067Z,13.70
2023-04-17T23:44:01.811Z,13.70
2023-04-17T23:46:29.340Z,13.70
2023-04-17T23:48:56.617Z,13.70
2023-04-17T23:51:23.917Z,13.70
2023-04-17T23:53:51.252Z,13.70
2023-04-17T23:56:22.185Z,13.70
2023-04-17T23:58:49.487Z,13.70
